Sandlake, Wisconsin
Current Conditions -  °F | °C
As of 7:55 AM on Saturday 22 Nov 2014 (Local Time) from KOEO Reporting Station
Haze Haze  
Wind Chill: 30°   Ceiling: 900
Heat Index: 36°   Visibility: 3mi
Dew Point: 35°   Wind: 7mph
Humidity: 98%   Direction: 190°S
Pressure: 29.8"   Gusts: NA
Location:  45.3599°N, 92.5447°W
Report Text: KOEO 221355Z AUTO 19006KT 3SM BR OVC009 02/02 A2980 RMK AO2 T00200017
Loading
Personal Weather Stations






























Interactive Weather Map New forecast layout! Learn more

10-Day Weather Forecast

Advertisements
Track Severe Weather on mobile